Port O'Connor, TX (77982)

11:59 AM CDT on July 07, 2015 (GMT -0500)
BB Upholstery | | Change Station
CLOSE
Current Station
Personal Weather Station
Location: Port O'Connor, TX
Elevation: 30 ft
Nearby Weather Stations

Elev 30 ft 28.44 °N, 96.43 °W | Updated 22 seconds ago

Partly Cloudy
Partly Cloudy
86.5 °F
Feels Like 102 °F
N
10.0
Wind Variable Wind from SW
Gusts 19.0 mph

Today
High -- | Low -- °F
--% Chance of Precip.
Yesterday
High -- | Low -- °F
Precip. -- in
6:35 AM 8:27 PM
Waning Gibbous, 63% visible
Pressure 30.02 in
Visibility 10.0 miles
Clouds Scattered Clouds 2900 ft
Scattered Clouds 3500 ft
Mostly Cloudy 4700 ft
Heat Index 102 °F
Dew Point 80 °F
Humidity 81%
Rainfall 0.00 in
Snow Depth Not available.
UV 6 out of 12
Pollen 4.00 out of 12
Air Quality Not available.
Flu Activity Not available.
METAR KPKV 071655Z AUTO 16018G22KT 10SM SCT029 SCT035 BKN047 31/25 A3002 RMK AO2 T03080248

More Conditions Fewer Conditions

Pressure 30.02 in
Visibility 10.0 miles
Clouds Scattered Clouds 2900 ft
Scattered Clouds 3500 ft
Mostly Cloudy 4700 ft
Heat Index 102 °F
Dew Point 80 °F
Humidity 81%
Rainfall 0.00 in
Snow Depth Not available.
UV 6 out of 12
Pollen 4.00 out of 12
Air Quality Not available.
Flu Activity Not available.
METAR KPKV 071655Z AUTO 16018G22KT 10SM SCT029 SCT035 BKN047 31/25 A3002 RMK AO2 T03080248

More Conditions Fewer Conditions

10-Day Weather Forecast

×

Almanac

Astronomy

Jul. 07, 2015 Rise Set
Actual Time
Civil Twilight
Nautical Twilight
Astronomical Twilight
Moon
Length of Visible Light
Length of Day
Tomorrow will be .
, % of the Moon is Illuminated

Today's Extremes

State Highs State Lows

Community

WunderPhotos

Upload Photos

1,835,849 photos uploaded!

WunderBlogs® & News

Nearby

Air Quality

  Air Quality AQ Index Pollutant
Not available.

Snow Depth

Station Depth Elevation

Earthquake Activity

City Distance Mag. Time & Date
Minimum magnitude displayed is 2.5.

Coastal Water Temperatures

Place Temperature

Stations

Nearby Weather Stations

Station Location Temp. Windchill Dew Point Humidity Wind Precip. Elev Updated Type